Time;durP1;ratioP1;P1;durP2;ratioP2;P2;SDS_P1;SDS_P2;PMS_P1;PMS_P2;Temp;Humidity;BMP_temperature;BMP_pressure;BME280_temperature;BME280_humidity;BME280_pressure;Samples;Min_cycle;Max_cycle;Signal;HPM_P1;HPM_P2
2021/09/03 00:00:44;;;;;;;15.63;8.07;;;;;;;10.39;93.08;98973.78;5025565;28;20021;-68
2021/09/03 00:03:09;;;;;;;13.90;7.95;;;;;;;10.43;93.84;98964.94;5025350;28;20037;-68
2021/09/03 00:05:36;;;;;;;16.63;8.05;;;;;;;10.52;93.86;98958.66;5025458;28;20026;-68
2021/09/03 00:08:01;;;;;;;13.48;7.70;;;;;;;10.49;93.23;98948.19;5025445;28;20084;-68
2021/09/03 00:10:27;;;;;;;16.00;8.75;;;;;;;10.42;93.98;98950.06;5025263;28;20018;-68
2021/09/03 00:12:52;;;;;;;14.25;6.80;;;;;;;10.51;93.65;98946.41;5025353;28;20053;-68
2021/09/03 00:15:18;;;;;;;13.73;7.65;;;;;;;10.47;93.04;98952.59;5025275;28;20041;-68
2021/09/03 00:17:44;;;;;;;11.18;7.22;;;;;;;10.44;92.75;98952.66;5025183;28;20022;-68
2021/09/03 00:20:11;;;;;;;13.52;7.65;;;;;;;10.25;92.87;98953.78;5025216;28;20026;-68
2021/09/03 00:22:37;;;;;;;13.05;7.72;;;;;;;10.16;92.88;98954.75;5024891;28;20053;-68
2021/09/03 00:25:03;;;;;;;11.75;6.80;;;;;;;10.24;92.93;98944.16;5025211;28;20115;-68
2021/09/03 00:27:29;;;;;;;15.80;7.55;;;;;;;10.25;93.25;98953.78;5025116;28;20022;-68
2021/09/03 00:29:54;;;;;;;11.25;7.00;;;;;;;10.22;92.80;98948.56;5025056;28;20072;-68
2021/09/03 00:32:20;;;;;;;13.35;7.82;;;;;;;10.22;93.03;98948.56;5024992;28;20022;-68
2021/09/03 00:34:45;;;;;;;15.50;7.18;;;;;;;10.11;92.85;98940.81;5007135;28;20321;-68
2021/09/03 00:37:10;;;;;;;10.93;7.20;;;;;;;10.07;92.81;98944.38;5024842;28;20033;-68
2021/09/03 00:39:36;;;;;;;11.82;7.40;;;;;;;10.05;92.66;98940.84;5024862;28;20022;-68
2021/09/03 00:42:08;;;;;;;10.20;6.72;;;;;;;10.07;93.03;98939.13;5024848;28;20026;-68
2021/09/03 00:44:34;;;;;;;14.38;6.18;;;;;;;10.06;93.19;98941.72;5024847;28;20025;-68
2021/09/03 00:46:59;;;;;;;12.48;7.32;;;;;;;9.71;93.39;98943.91;5024760;28;20339;-68
2021/09/03 00:49:25;;;;;;;13.40;7.60;;;;;;;9.67;95.09;98936.91;5024590;28;20017;-68
2021/09/03 00:51:50;;;;;;;17.15;6.93;;;;;;;9.70;94.41;98932.50;5024650;28;20076;-68
2021/09/03 00:54:16;;;;;;;14.68;7.88;;;;;;;9.82;94.04;98934.13;5024589;28;20096;-68
2021/09/03 00:56:41;;;;;;;11.98;7.63;;;;;;;9.87;94.34;98929.69;5024609;28;20033;-68
2021/09/03 00:59:07;;;;;;;12.52;7.13;;;;;;;9.81;93.59;98929.75;5024194;28;20018;-68
2021/09/03 01:01:32;;;;;;;17.83;7.72;;;;;;;9.92;93.48;98927.88;5024525;28;20320;-68
2021/09/03 01:03:58;;;;;;;10.75;6.03;;;;;;;9.87;93.08;98929.69;5024328;28;20042;-68
2021/09/03 01:06:24;;;;;;;11.82;7.55;;;;;;;9.79;92.77;98926.28;5024434;28;20030;-68
2021/09/03 01:08:49;;;;;;;13.25;7.03;;;;;;;9.79;93.55;98923.66;5024415;28;20018;-68
2021/09/03 01:11:15;;;;;;;11.02;7.10;;;;;;;9.72;93.23;98920.22;5024356;28;20093;-68
2021/09/03 01:13:40;;;;;;;11.40;6.75;;;;;;;9.69;93.36;98924.66;5024331;28;20342;-68
2021/09/03 01:16:06;;;;;;;12.93;7.97;;;;;;;9.69;93.46;98919.38;5024335;28;20021;-68
2021/09/03 01:18:31;;;;;;;12.48;7.43;;;;;;;9.68;93.57;98928.16;5024164;28;20092;-68
2021/09/03 01:20:56;;;;;;;17.60;7.07;;;;;;;9.73;92.67;98927.22;5024053;28;20026;-68
2021/09/03 01:23:22;;;;;;;9.30;6.10;;;;;;;9.70;92.66;98929.00;5024182;28;20028;-68
2021/09/03 01:25:47;;;;;;;11.23;6.50;;;;;;;9.48;92.74;98924.84;5024145;28;20032;-68
2021/09/03 01:28:13;;;;;;;9.05;6.07;;;;;;;9.43;93.57;98929.31;5024139;28;20018;-68
2021/09/03 01:30:38;;;;;;;9.48;6.22;;;;;;;9.40;93.29;98929.34;5024176;28;20029;-68
2021/09/03 01:33:04;;;;;;;9.00;5.95;;;;;;;9.44;93.17;98923.16;5024106;28;20021;-68
2021/09/03 01:35:29;;;;;;;9.30;5.97;;;;;;;9.39;93.56;98919.69;5023448;28;20026;-68
2021/09/03 01:37:55;;;;;;;11.20;6.60;;;;;;;9.25;93.52;98916.34;5023985;28;20049;-68
2021/09/03 01:40:20;;;;;;;10.43;6.32;;;;;;;9.20;93.53;98912.91;5024013;28;20316;-68
2021/09/03 01:42:46;;;;;;;8.88;5.63;;;;;;;9.31;94.54;98911.03;5024009;28;20036;-67
2021/09/03 01:45:11;;;;;;;10.50;6.45;;;;;;;9.34;93.68;98908.38;5023813;28;20371;-67
2021/09/03 01:47:36;;;;;;;14.10;6.72;;;;;;;9.27;93.16;98898.81;5023855;28;20029;-68
2021/09/03 01:50:04;;;;;;;10.60;4.38;;;;;;;9.32;93.43;98903.16;5023922;28;20072;-68
2021/09/03 01:52:29;;;;;;;12.48;5.07;;;;;;;9.21;93.24;98909.38;5023930;28;20028;-68
2021/09/03 01:54:54;;;;;;;10.20;5.95;;;;;;;9.20;93.68;98912.91;5023905;28;20022;-68
2021/09/03 01:57:20;;;;;;;9.13;5.90;;;;;;;9.19;94.05;98911.16;5023808;28;20025;-68
2021/09/03 01:59:45;;;;;;;10.25;6.65;;;;;;;9.21;94.25;98915.50;5023598;28;20022;-68
2021/09/03 02:02:11;;;;;;;24.33;6.63;;;;;;;9.29;93.43;98913.69;5023851;28;20026;-68
2021/09/03 02:04:36;;;;;;;10.90;6.20;;;;;;;9.25;93.03;98916.34;5023646;28;20104;-68
2021/09/03 02:07:02;;;;;;;9.95;6.15;;;;;;;9.28;93.03;98905.81;5023764;28;20028;-68
2021/09/03 02:09:27;;;;;;;10.68;5.68;;;;;;;9.23;93.14;98915.47;5023581;28;20025;-67
2021/09/03 02:11:52;;;;;;;8.70;6.30;;;;;;;9.15;92.61;98910.31;5023743;28;20089;-67
2021/09/03 02:14:18;;;;;;;12.90;6.72;;;;;;;9.11;93.07;98910.38;5023718;28;20033;-67
2021/09/03 02:16:43;;;;;;;8.20;5.25;;;;;;;9.16;92.26;98905.94;5023710;28;20026;-67
2021/09/03 02:19:09;;;;;;;8.60;5.13;;;;;;;9.01;91.78;98913.97;5023606;28;20034;-67
2021/09/03 02:21:34;;;;;;;12.65;6.57;;;;;;;8.66;93.29;98909.88;5023696;28;20321;-67
2021/09/03 02:24:00;;;;;;;12.27;6.25;;;;;;;8.79;94.52;98914.13;5023835;28;20041;-67
2021/09/03 02:26:25;;;;;;;11.02;5.68;;;;;;;8.82;94.50;98906.22;5023591;28;20025;-67
2021/09/03 02:28:50;;;;;;;9.25;5.80;;;;;;;8.93;94.59;98907.91;5023591;28;20256;-67
2021/09/03 02:31:16;;;;;;;10.25;6.40;;;;;;;8.99;93.89;98910.47;5023548;28;20026;-67
2021/09/03 02:33:42;;;;;;;10.20;6.78;;;;;;;9.02;93.38;98913.06;5023325;28;20021;-67
2021/09/03 02:36:08;;;;;;;9.98;6.43;;;;;;;9.05;92.90;98913.03;5023531;28;20321;-67
2021/09/03 02:38:34;;;;;;;8.85;5.78;;;;;;;8.93;92.98;98914.03;5023443;28;20086;-67
2021/09/03 02:40:59;;;;;;;10.48;6.25;;;;;;;8.86;92.71;98916.72;5006015;28;20034;-67
2021/09/03 02:43:25;;;;;;;10.95;5.93;;;;;;;8.86;92.46;98920.19;5023423;28;20033;-67
2021/09/03 02:45:51;;;;;;;13.95;6.30;;;;;;;8.88;92.63;98915.81;5023850;28;20022;-67
2021/09/03 02:48:17;;;;;;;8.73;5.68;;;;;;;8.82;92.59;98922.88;5026883;28;20225;-67
2021/09/03 02:50:42;;;;;;;11.43;5.40;;;;;;;8.79;92.28;98922.00;5026928;28;20026;-67
2021/09/03 02:53:08;;;;;;;13.02;5.85;;;;;;;8.77;92.82;98926.38;5009299;28;20053;-67
2021/09/03 02:55:33;;;;;;;13.07;5.60;;;;;;;8.61;92.15;98931.78;5026802;28;20036;-67
2021/09/03 02:57:59;;;;;;;8.18;5.45;;;;;;;8.61;93.02;98922.13;5026688;28;20032;-68
2021/09/03 03:00:24;;;;;;;7.15;5.05;;;;;;;8.68;93.49;98923.81;5026709;28;20029;-68
2021/09/03 03:02:51;;;;;;;11.20;5.30;;;;;;;8.68;92.38;98918.56;5026485;28;20360;-68
2021/09/03 03:05:17;;;;;;;7.68;4.82;;;;;;;8.70;92.91;98923.81;5026932;28;20060;-68
2021/09/03 03:07:43;;;;;;;9.32;5.55;;;;;;;8.57;91.68;98909.91;5026314;28;20018;-68
2021/09/03 03:10:09;;;;;;;8.73;5.38;;;;;;;8.50;92.61;98912.59;5026417;28;20026;-68
2021/09/03 03:12:34;;;;;;;10.13;5.68;;;;;;;8.52;92.86;98906.44;5026541;28;20029;-68
2021/09/03 03:15:00;;;;;;;7.05;4.65;;;;;;;8.56;92.83;98908.19;5026520;28;20233;-68
2021/09/03 03:17:26;;;;;;;8.60;5.50;;;;;;;8.44;92.57;98908.25;5026320;28;20053;-68
2021/09/03 03:19:51;;;;;;;10.05;5.60;;;;;;;8.27;92.95;98904.88;5026372;28;20032;-68
2021/09/03 03:22:17;;;;;;;9.35;5.78;;;;;;;8.28;92.92;98904.00;5026323;28;20049;-68
2021/09/03 03:24:42;;;;;;;8.05;5.00;;;;;;;8.40;93.00;98900.44;5026300;28;20036;-68
2021/09/03 03:27:08;;;;;;;6.25;4.65;;;;;;;8.38;92.86;98899.56;5026252;28;20049;-68
2021/09/03 03:29:34;;;;;;;8.48;5.50;;;;;;;8.12;92.82;98899.69;5026076;28;20026;-68
2021/09/03 03:31:59;;;;;;;9.68;5.65;;;;;;;8.15;93.11;98894.44;5026190;28;20026;-68
2021/09/03 03:34:25;;;;;;;15.90;5.40;;;;;;;8.15;93.42;98897.06;5026085;28;20025;-68
2021/09/03 03:36:50;;;;;;;14.75;5.35;;;;;;;8.22;93.59;98892.66;5026062;28;20089;-68
2021/09/03 03:39:16;;;;;;;11.10;5.50;;;;;;;8.12;93.78;98889.22;5025937;28;20030;-68
2021/09/03 03:41:41;;;;;;;14.43;5.88;;;;;;;8.08;92.89;98889.22;5008489;28;20026;-68
2021/09/03 03:44:07;;;;;;;14.27;5.50;;;;;;;8.09;93.27;98899.72;5025927;28;20315;-68
2021/09/03 03:46:32;;;;;;;9.68;5.18;;;;;;;8.02;92.79;98892.75;5025847;28;20025;-68
2021/09/03 03:48:57;;;;;;;9.25;5.40;;;;;;;8.02;92.93;98892.75;5025808;28;20194;-68
2021/09/03 03:51:23;;;;;;;10.75;6.03;;;;;;;7.99;93.74;98887.53;5025742;28;20088;-68
2021/09/03 03:53:49;;;;;;;10.65;5.78;;;;;;;8.00;93.45;98888.38;5025743;28;20060;-68
2021/09/03 03:56:15;;;;;;;11.65;6.38;;;;;;;8.07;94.87;98896.22;5025708;28;20393;-68
2021/09/03 03:58:41;;;;;;;7.38;4.78;;;;;;;8.13;94.13;98890.09;5024757;28;20089;-68
2021/09/03 04:01:07;;;;;;;6.82;4.50;;;;;;;8.14;93.30;98879.56;5025577;28;20059;-68
2021/09/03 04:03:32;;;;;;;7.88;5.05;;;;;;;7.93;92.65;98881.44;5025337;28;20360;-68
2021/09/03 04:05:57;;;;;;;7.75;4.88;;;;;;;7.85;93.06;98873.59;5025534;28;20022;-68
2021/09/03 04:08:23;;;;;;;10.55;4.85;;;;;;;7.99;92.82;98882.28;5025011;28;20021;-68
2021/09/03 04:10:48;;;;;;;9.77;5.47;;;;;;;8.02;92.93;98877.03;5024939;28;20029;-68
2021/09/03 04:13:15;;;;;;;9.02;5.40;;;;;;;7.87;93.10;98882.34;5023800;28;20050;-68
2021/09/03 04:15:40;;;;;;;9.02;5.18;;;;;;;7.79;92.64;98884.13;5024222;28;20343;-68
2021/09/03 04:18:06;;;;;;;9.10;5.70;;;;;;;7.89;93.96;98880.59;5024294;28;20025;-68
2021/09/03 04:20:31;;;;;;;8.98;5.30;;;;;;;7.94;93.40;98883.19;5024312;28;20041;-68
2021/09/03 04:22:57;;;;;;;10.48;4.93;;;;;;;7.77;92.57;98885.88;5024513;28;20034;-68
2021/09/03 04:25:22;;;;;;;9.52;4.95;;;;;;;7.69;92.75;98882.41;5024261;28;20022;-68
2021/09/03 04:27:48;;;;;;;8.20;4.45;;;;;;;7.79;93.85;98884.13;5023767;28;20021;-68
2021/09/03 04:30:13;;;;;;;5.50;3.95;;;;;;;7.77;93.33;98879.78;5024171;28;20028;-68
2021/09/03 04:32:39;;;;;;;6.38;3.88;;;;;;;7.67;93.36;98873.72;5024153;28;20026;-68
2021/09/03 04:35:06;;;;;;;6.63;4.13;;;;;;;7.65;93.29;98891.16;5024056;28;20025;-68
2021/09/03 04:37:31;;;;;;;7.43;4.07;;;;;;;7.71;94.23;98890.28;5024007;28;20232;-68
2021/09/03 04:39:57;;;;;;;6.93;4.43;;;;;;;7.83;93.44;98891.09;5024450;28;20085;-68
2021/09/03 04:42:22;;;;;;;8.35;5.15;;;;;;;7.78;93.20;98892.88;5024882;28;20026;-68
2021/09/03 04:44:48;;;;;;;9.20;5.78;;;;;;;7.61;93.95;98899.94;5024829;28;20252;-68
2021/09/03 04:47:13;;;;;;;9.70;5.63;;;;;;;7.57;94.24;98890.34;5024819;28;20042;-68
2021/09/03 04:49:39;;;;;;;9.32;5.70;;;;;;;7.62;94.95;98896.41;5024720;28;20021;-67
2021/09/03 04:52:04;;;;;;;9.05;5.63;;;;;;;7.64;94.98;98897.28;5024715;28;20021;-67
2021/09/03 04:54:30;;;;;;;7.93;5.10;;;;;;;7.68;94.77;98891.16;5024703;28;20025;-67
2021/09/03 04:56:55;;;;;;;9.57;6.13;;;;;;;7.73;94.48;98894.66;5024615;28;20280;-67
2021/09/03 04:59:20;;;;;;;9.60;5.38;;;;;;;7.82;94.29;98889.34;5024489;28;20030;-67
2021/09/03 05:01:46;;;;;;;7.95;5.30;;;;;;;7.82;93.25;98891.13;5024549;28;20037;-67
2021/09/03 05:04:11;;;;;;;9.30;5.07;;;;;;;7.66;93.14;98892.06;5024331;28;20364;-67
2021/09/03 05:06:37;;;;;;;10.75;6.35;;;;;;;7.61;93.90;98899.03;5024486;28;20033;-67
2021/09/03 05:09:02;;;;;;;11.35;5.85;;;;;;;7.69;93.67;98898.13;5005723;28;20018;-67
2021/09/03 05:11:28;;;;;;;8.85;5.90;;;;;;;7.77;93.79;98893.75;5014397;28;20029;-67
2021/09/03 05:13:53;;;;;;;10.25;5.80;;;;;;;7.76;93.91;98893.75;5018220;28;20041;-67
2021/09/03 05:16:18;;;;;;;10.48;6.07;;;;;;;7.86;93.17;98891.09;5024347;28;20021;-67
2021/09/03 05:18:44;;;;;;;10.93;6.10;;;;;;;7.82;93.38;98891.97;5024229;28;20022;-67
2021/09/03 05:21:09;;;;;;;7.70;4.97;;;;;;;7.82;93.80;98891.97;5024126;28;20019;-67
2021/09/03 05:23:35;;;;;;;8.57;5.28;;;;;;;8.01;93.17;98891.00;5024273;28;20220;-67
2021/09/03 05:26:01;;;;;;;8.75;5.55;;;;;;;8.06;93.29;98894.47;5024187;28;20025;-67
2021/09/03 05:28:27;;;;;;;8.90;5.50;;;;;;;8.14;93.30;98900.53;5024151;28;20045;-67
2021/09/03 05:30:53;;;;;;;8.95;5.00;;;;;;;8.34;93.46;98901.34;5024173;28;20022;-67
2021/09/03 05:33:19;;;;;;;6.50;4.70;;;;;;;8.64;92.33;98898.50;5024121;28;20045;-67
2021/09/03 05:35:44;;;;;;;7.13;4.95;;;;;;;9.13;91.88;98895.44;5024130;28;20308;-67
2021/09/03 05:38:09;;;;;;;7.28;4.25;;;;;;;9.77;88.79;98897.38;5024022;28;20125;-67
2021/09/03 05:40:35;;;;;;;6.60;4.50;;;;;;;10.16;87.11;98896.03;5021952;28;20018;-68
2021/09/03 05:43:01;;;;;;;6.00;4.10;;;;;;;10.68;85.13;98897.91;5024045;28;20248;-68
2021/09/03 05:45:27;;;;;;;6.93;4.18;;;;;;;11.21;83.51;98894.38;5024026;28;20321;-68
2021/09/03 05:47:53;;;;;;;7.97;4.18;;;;;;;11.57;81.76;98893.69;5024031;28;20125;-68
2021/09/03 05:50:19;;;;;;;6.93;3.83;;;;;;;11.93;80.22;98900.88;5023992;28;20022;-68
2021/09/03 05:52:44;;;;;;;5.18;3.60;;;;;;;12.32;78.60;98886.88;5023941;28;20021;-68
2021/09/03 05:55:10;;;;;;;5.85;3.80;;;;;;;12.58;77.26;98884.50;5023954;28;20021;-68
2021/09/03 05:57:35;;;;;;;8.65;4.00;;;;;;;12.95;75.64;98887.13;5023835;28;20248;-68
2021/09/03 06:00:01;;;;;;;9.73;4.65;;;;;;;13.09;75.58;98886.81;5023930;28;20026;-68
2021/09/03 06:02:27;;;;;;;7.18;4.07;;;;;;;13.21;75.18;98887.34;5023785;28;20018;-68
2021/09/03 06:04:52;;;;;;;9.35;3.92;;;;;;;13.57;75.10;98896.09;5023858;28;20333;-68
2021/09/03 06:07:18;;;;;;;8.75;4.07;;;;;;;13.85;74.63;98897.06;5023841;28;20034;-68
2021/09/03 06:09:43;;;;;;;8.18;4.75;;;;;;;14.26;72.56;98888.81;5006297;28;20125;-68
2021/09/03 06:12:08;;;;;;;8.73;4.65;;;;;;;14.53;72.10;98888.00;5023739;28;20057;-68
2021/09/03 06:14:34;;;;;;;6.35;4.30;;;;;;;14.98;71.14;98891.81;5023732;28;20036;-68
2021/09/03 06:17:00;;;;;;;8.73;4.10;;;;;;;15.28;69.85;98885.47;5023754;28;20325;-68
2021/09/03 06:19:25;;;;;;;6.15;3.75;;;;;;;15.63;69.94;98882.50;5023643;28;20088;-68
2021/09/03 06:21:51;;;;;;;7.20;3.67;;;;;;;15.97;69.14;98890.97;5025716;28;20324;-68
2021/09/03 06:24:32;;;;;;;7.30;4.35;;;;;;;16.23;67.46;98885.56;5027472;28;20026;-68
2021/09/03 06:27:00;;;;;;;6.90;3.92;;;;;;;16.45;67.59;98877.69;5027425;28;20021;-68
2021/09/03 06:29:41;;;;;;;6.10;3.80;;;;;;;16.91;66.29;98874.91;5027357;28;20025;-68
2021/09/03 06:32:18;;;;;;;8.45;4.30;;;;;;;16.89;66.82;98872.31;5027391;28;20049;-68
2021/09/03 06:34:54;;;;;;;7.45;4.22;;;;;;;17.21;65.26;98879.84;5027268;28;20017;-68
2021/09/03 06:37:21;;;;;;;8.65;4.00;;;;;;;17.47;64.87;98875.25;5027177;28;20049;-68
2021/09/03 06:39:47;;;;;;;8.55;5.15;;;;;;;17.14;66.13;98878.38;5027161;28;20030;-68
2021/09/03 06:42:13;;;;;;;8.13;4.82;;;;;;;17.85;65.65;98887.75;5027156;28;20321;-68
2021/09/03 06:44:39;;;;;;;7.22;4.78;;;;;;;16.70;67.93;98881.09;5027044;28;20080;-66
2021/09/03 06:47:06;;;;;;;8.30;4.68;;;;;;;17.87;68.09;98886.72;5027058;28;20025;-66
2021/09/03 06:49:33;;;;;;;6.35;4.20;;;;;;;18.76;64.43;98885.22;5026988;28;20361;-66
2021/09/03 06:51:59;;;;;;;7.18;4.75;;;;;;;19.48;62.48;98892.31;5026945;28;20091;-66
2021/09/03 06:54:24;;;;;;;6.47;4.25;;;;;;;19.68;62.78;98884.13;5026872;28;20025;-66
2021/09/03 06:56:50;;;;;;;8.32;4.47;;;;;;;20.39;60.30;98878.53;5026822;28;20249;-66
2021/09/03 06:59:15;;;;;;;9.30;4.82;;;;;;;20.46;61.44;98879.91;5026718;28;20056;-66
2021/09/03 07:01:41;;;;;;;9.88;5.28;;;;;;;20.13;61.45;98881.78;5026759;28;20341;-66
2021/09/03 07:04:06;;;;;;;11.27;5.65;;;;;;;20.35;61.67;98876.94;5026606;28;20052;-66
2021/09/03 07:06:32;;;;;;;11.75;4.90;;;;;;;21.08;61.00;98881.78;5026764;28;20045;-66
2021/09/03 07:08:58;;;;;;;17.05;5.43;;;;;;;21.04;61.72;98878.41;5026658;28;20046;-66
2021/09/03 07:11:24;;;;;;;8.93;5.53;;;;;;;21.41;59.99;98882.47;5026855;28;20340;-66
2021/09/03 07:13:49;;;;;;;8.07;4.70;;;;;;;22.16;59.36;98877.00;5026536;28;20021;-66
2021/09/03 07:16:15;;;;;;;9.00;4.97;;;;;;;22.62;57.72;98882.09;5026483;28;20213;-67
2021/09/03 07:18:40;;;;;;;8.18;5.15;;;;;;;22.83;59.01;98880.72;5026346;28;20034;-66
2021/09/03 07:21:06;;;;;;;9.15;5.20;;;;;;;23.04;57.70;98884.69;5026382;28;20041;-66
2021/09/03 07:23:31;;;;;;;9.48;5.53;;;;;;;23.48;57.39;98884.47;5026345;28;20242;-66
2021/09/03 07:25:58;;;;;;;8.85;5.63;;;;;;;24.12;56.28;98891.69;5026294;28;20041;-66
2021/09/03 07:28:24;;;;;;;10.48;6.55;;;;;;;23.99;55.21;98880.94;5026236;28;20054;-66
2021/09/03 07:30:49;;;;;;;10.13;5.65;;;;;;;24.71;55.01;98880.28;5026172;28;20029;-66
2021/09/03 07:33:14;;;;;;;11.75;6.22;;;;;;;24.56;54.17;98874.13;5025171;28;20088;-66
2021/09/03 07:35:40;;;;;;;13.27;6.80;;;;;;;24.84;53.85;98870.31;5026112;28;20112;-66
2021/09/03 07:38:05;;;;;;;13.90;6.15;;;;;;;24.77;53.28;98869.91;5026219;28;20026;-66
2021/09/03 07:40:32;;;;;;;10.15;6.90;;;;;;;24.69;52.58;98863.34;5026093;28;20025;-66
2021/09/03 07:43:05;;;;;;;10.13;6.35;;;;;;;25.11;52.80;98869.13;5025960;28;20362;-66
2021/09/03 07:45:32;;;;;;;9.75;6.60;;;;;;;25.46;50.63;98861.13;5026052;28;20084;-66
2021/09/03 07:47:57;;;;;;;10.95;7.55;;;;;;;25.00;50.77;98858.28;5025876;28;20045;-66
2021/09/03 07:50:23;;;;;;;11.45;7.18;;;;;;;25.11;52.88;98863.75;5026086;28;20335;-66
2021/09/03 07:52:48;;;;;;;9.32;6.35;;;;;;;25.97;51.03;98864.38;5025797;28;20018;-66
2021/09/03 07:55:13;;;;;;;9.25;6.22;;;;;;;25.86;51.21;98861.63;5025754;28;20018;-66
2021/09/03 07:57:39;;;;;;;13.73;6.63;;;;;;;26.44;48.94;98858.78;5025590;28;20021;-66
2021/09/03 08:00:05;;;;;;;12.15;7.03;;;;;;;25.71;50.50;98860.09;5025631;28;20022;-66
2021/09/03 08:02:30;;;;;;;8.80;6.53;;;;;;;26.29;49.46;98860.88;5025394;28;20022;-66
2021/09/03 08:04:56;;;;;;;11.38;6.85;;;;;;;26.29;49.83;98870.81;5025514;28;20029;-66
2021/09/03 08:07:25;;;;;;;9.40;6.35;;;;;;;26.46;47.67;98873.91;5025521;28;20375;-66
2021/09/03 08:09:51;;;;;;;11.38;6.60;;;;;;;26.38;49.09;98870.06;5025512;28;20029;-66
2021/09/03 08:12:16;;;;;;;12.68;7.43;;;;;;;26.37;48.66;98860.25;5025420;28;20022;-66
2021/09/03 08:14:41;;;;;;;11.40;6.15;;;;;;;26.56;49.17;98865.91;5025402;28;20045;-66
2021/09/03 08:17:07;;;;;;;11.13;6.90;;;;;;;26.92;48.37;98866.50;5025308;28;20021;-66
2021/09/03 08:19:32;;;;;;;12.45;7.32;;;;;;;26.31;47.41;98869.72;5025215;28;20380;-66
2021/09/03 08:21:58;;;;;;;10.43;7.38;;;;;;;26.69;47.17;98864.84;5025304;28;20018;-66
2021/09/03 08:24:23;;;;;;;12.20;7.25;;;;;;;26.20;48.44;98860.75;5025240;28;20017;-66
2021/09/03 08:26:48;;;;;;;11.10;7.22;;;;;;;26.93;47.31;98856.59;5025166;28;20026;-66
2021/09/03 08:29:14;;;;;;;9.07;6.32;;;;;;;26.84;48.82;98852.78;5025170;28;20305;-66
2021/09/03 08:31:39;;;;;;;12.15;6.90;;;;;;;26.76;45.81;98860.66;5025189;28;20021;-66
2021/09/03 08:34:06;;;;;;;9.80;6.15;;;;;;;26.72;46.08;98851.09;5025143;28;20249;-66
2021/09/03 08:36:32;;;;;;;14.80;7.40;;;;;;;26.38;47.39;98848.47;5025077;28;20093;-66
2021/09/03 08:38:57;;;;;;;11.40;7.35;;;;;;;26.71;44.27;98856.63;5024867;28;20313;-66
2021/09/03 08:41:24;;;;;;;12.43;7.22;;;;;;;26.35;46.63;98851.44;5024942;28;20028;-66
2021/09/03 08:43:53;;;;;;;12.85;7.70;;;;;;;26.87;45.42;98851.69;5024739;28;20375;-66
2021/09/03 08:46:18;;;;;;;13.90;6.90;;;;;;;27.03;45.04;98847.59;5024841;28;20343;-66
2021/09/03 08:48:45;;;;;;;11.98;6.80;;;;;;;26.86;45.63;98850.81;5024847;28;20018;-66
2021/09/03 08:51:11;;;;;;;12.90;7.45;;;;;;;26.50;45.58;98852.91;5024780;28;20028;-66
2021/09/03 08:53:36;;;;;;;13.55;7.30;;;;;;;26.20;46.33;98858.06;5024672;28;20333;-66
2021/09/03 08:56:02;;;;;;;14.18;6.78;;;;;;;26.56;45.39;98855.09;5024723;28;20017;-66
2021/09/03 08:58:27;;;;;;;11.43;7.20;;;;;;;26.74;46.09;98861.78;5007071;28;20025;-66
2021/09/03 09:01:08;;;;;;;9.48;6.53;;;;;;;26.77;44.64;98856.13;5024604;28;20085;-66
2021/09/03 09:03:45;;;;;;;11.68;7.13;;;;;;;26.69;45.47;98858.56;5024461;28;20046;-66
2021/09/03 09:06:18;;;;;;;11.05;6.60;;;;;;;26.70;44.71;98855.75;5024543;28;20313;-66
2021/09/03 09:08:43;;;;;;;9.93;6.47;;;;;;;27.28;43.47;98860.78;5024520;28;20325;-66
2021/09/03 09:11:18;;;;;;;12.57;6.90;;;;;;;27.47;42.01;98868.25;5006986;28;20052;-66
2021/09/03 09:13:45;;;;;;;10.48;6.97;;;;;;;28.23;44.15;98863.44;5024715;28;20033;-66
2021/09/03 09:16:20;;;;;;;9.70;6.47;;;;;;;27.45;42.99;98870.22;5024374;28;20026;-66
2021/09/03 09:18:48;;;;;;;9.02;6.50;;;;;;;27.29;43.22;98869.78;5024314;28;20033;-66
2021/09/03 09:21:23;;;;;;;11.23;6.75;;;;;;;27.66;43.24;98876.53;5024362;28;20368;-66
2021/09/03 09:23:51;;;;;;;12.32;6.70;;;;;;;27.07;43.07;98869.81;5024295;28;20029;-66
2021/09/03 09:26:19;;;;;;;10.27;6.10;;;;;;;27.65;45.08;98868.53;5024283;28;20026;-66
2021/09/03 09:28:45;;;;;;;9.30;6.78;;;;;;;27.60;45.25;98873.47;5024264;28;20045;-66
2021/09/03 09:31:10;;;;;;;10.27;6.70;;;;;;;28.33;42.65;98863.47;5024219;28;20026;-66
2021/09/03 09:33:42;;;;;;;11.82;6.60;;;;;;;28.60;42.75;98859.19;5024415;28;20022;-66
2021/09/03 09:36:07;;;;;;;9.35;6.10;;;;;;;28.59;43.48;98854.78;5024308;28;20028;-66
2021/09/03 09:38:34;;;;;;;12.70;6.88;;;;;;;28.73;41.25;98859.81;5024127;28;20022;-66
2021/09/03 09:41:08;;;;;;;10.95;6.55;;;;;;;28.56;44.46;98860.47;5024141;28;20068;-66
2021/09/03 09:43:34;;;;;;;11.50;6.63;;;;;;;28.00;43.53;98855.59;5024037;28;20033;-66
2021/09/03 09:46:13;;;;;;;9.55;6.43;;;;;;;28.01;43.40;98863.56;5024098;28;20030;-66
2021/09/03 09:48:50;;;;;;;11.50;6.95;;;;;;;27.93;43.68;98860.66;5024269;28;20026;-66
2021/09/03 09:51:29;;;;;;;10.50;6.47;;;;;;;27.70;43.11;98858.16;5024019;28;20025;-66
2021/09/03 09:53:55;;;;;;;12.02;6.78;;;;;;;28.31;42.94;98860.91;5024239;28;20032;-66
2021/09/03 09:56:23;;;;;;;8.27;5.80;;;;;;;27.60;44.67;98851.81;5025253;28;20029;-66
2021/09/03 09:58:54;;;;;;;10.57;6.22;;;;;;;27.67;45.42;98853.03;5027860;28;20022;-66
2021/09/03 10:01:20;;;;;;;8.88;5.70;;;;;;;28.21;44.39;98843.75;5027974;28;20088;-66
2021/09/03 10:03:48;;;;;;;9.38;5.90;;;;;;;27.97;40.86;98845.88;5027636;28;20092;-66
2021/09/03 10:06:18;;;;;;;13.05;6.43;;;;;;;27.34;43.07;98840.53;5027833;28;20340;-66
2021/09/03 10:08:45;;;;;;;11.88;6.40;;;;;;;27.38;43.55;98841.97;5027831;28;20088;-66
2021/09/03 10:11:21;;;;;;;9.75;5.82;;;;;;;26.88;43.14;98848.84;5027746;28;20041;-66
2021/09/03 10:13:48;;;;;;;9.48;6.22;;;;;;;26.93;41.60;98830.41;5027669;28;20022;-66
2021/09/03 10:16:14;;;;;;;9.55;6.18;;;;;;;27.56;41.56;98840.44;5027632;28;20221;-66
2021/09/03 10:18:42;;;;;;;9.82;6.05;;;;;;;27.47;41.25;98838.50;5027560;28;20028;-66
2021/09/03 10:21:09;;;;;;;9.60;5.78;;;;;;;27.79;41.34;98831.19;5027500;28;20080;-66
2021/09/03 10:23:53;;;;;;;9.65;6.00;;;;;;;27.70;40.81;98836.53;5026347;28;20444;-66
2021/09/03 10:26:40;;;;;;;13.88;5.90;;;;;;;27.35;42.67;98844.94;5026169;28;20022;-66
2021/09/03 10:29:23;;;;;;;11.32;5.80;;;;;;;27.64;42.06;98837.91;5024103;28;20032;-66
2021/09/03 10:32:19;;;;;;;9.70;5.88;;;;;;;28.16;42.26;98829.75;5025466;28;20220;-66
2021/09/03 10:34:54;;;;;;;8.27;5.82;;;;;;;27.97;40.22;98829.63;5022698;28;20032;-66
2021/09/03 10:37:30;;;;;;;10.02;6.00;;;;;;;26.86;41.19;98839.16;5025658;28;20087;-66
2021/09/03 10:40:13;;;;;;;10.50;5.75;;;;;;;27.13;41.81;98836.88;5025738;28;20026;-65
2021/09/03 10:42:44;;;;;;;10.15;5.53;;;;;;;27.06;42.28;98827.56;5024878;28;20030;-65
2021/09/03 10:45:27;;;;;;;8.05;5.53;;;;;;;27.43;42.12;98823.53;5024537;28;20268;-65
2021/09/03 10:48:04;;;;;;;10.57;5.50;;;;;;;27.50;41.01;98821.16;5025601;28;20020;-65
2021/09/03 10:50:55;;;;;;;12.35;6.28;;;;;;;27.25;41.98;98825.06;5019947;28;20092;-65
2021/09/03 10:53:28;;;;;;;12.07;5.70;;;;;;;27.47;43.22;98813.31;5010682;28;20095;-65
2021/09/03 10:56:07;;;;;;;8.93;6.07;;;;;;;27.32;43.46;98815.47;5024611;28;20088;-65
2021/09/03 10:58:50;;;;;;;8.88;5.72;;;;;;;27.31;42.18;98813.75;5018189;28;20059;-65
2021/09/03 11:01:15;;;;;;;8.13;5.25;;;;;;;26.96;42.27;98813.94;5025322;28;20025;-65
2021/09/03 11:03:49;;;;;;;7.65;5.47;;;;;;;27.82;40.64;98809.31;5024569;28;20037;-65
2021/09/03 11:06:24;;;;;;;7.78;5.35;;;;;;;27.88;42.05;98810.66;5025467;28;20018;-65
2021/09/03 11:09:00;;;;;;;8.10;5.25;;;;;;;27.86;39.24;98805.38;5022453;28;20018;-65
2021/09/03 11:11:28;;;;;;;9.45;5.25;;;;;;;27.42;39.34;98813.69;5023348;28;20022;-65
2021/09/03 11:13:59;;;;;;;8.32;4.88;;;;;;;27.49;40.11;98809.47;5024727;28;20026;-65
2021/09/03 11:16:36;;;;;;;10.30;5.30;;;;;;;27.66;39.69;98803.50;5025520;28;20026;-65
2021/09/03 11:19:06;;;;;;;10.48;5.70;;;;;;;28.08;41.82;98801.63;5025451;28;20093;-65
2021/09/03 11:21:34;;;;;;;8.05;5.30;;;;;;;27.68;41.07;98804.19;5007324;28;20121;-65
2021/09/03 11:24:00;;;;;;;9.07;5.32;;;;;;;27.91;42.49;98795.00;5025178;28;20260;-65
2021/09/03 11:26:28;;;;;;;8.60;5.47;;;;;;;28.36;39.15;98793.66;5025418;28;20219;-65
2021/09/03 11:28:55;;;;;;;8.40;5.38;;;;;;;28.25;41.32;98791.03;5025434;28;20391;-65
2021/09/03 11:31:21;;;;;;;8.55;5.53;;;;;;;28.23;41.28;98793.03;5025356;28;20109;-65
2021/09/03 11:33:47;;;;;;;10.35;5.70;;;;;;;27.90;41.30;98793.28;5025190;28;20320;-65